YQK weather

Kenora Airport
Kenora, Ontario, Canada

Public forecast

Using degrees Celsius for public forecast. Weather courtesy of forecast.io.

Current aviation weather report (METAR) for Kenora Airport

Retrieved 2019/11/14 13:00 UTC (23 minutes ago):

CYQK 141300Z 22013KT 20SM -SN BKN015 BKN150 M11/M14 A2996 RMK SC6AC1 SLP177

Aviation forecast (TAF) for Kenora Airport

Retrieved 2019/11/14 08:51 UTC (5 hours ago):

TAF CYQK 140747Z 1408/1420 29008KT 4SM -SN OVC015 TEMPO 1408/1412 P6SM -SN OVC025 FM141200 24008KT P6SM BKN012 OVC080 TEMPO 1412/1416 5SM -SN PROB30 1412/1416 OVC008 FM141600 23010G20KT 3SM -SN OVC015 TEMPO 1416/1420 11/2SM -SN VV010 BECMG 1417/1419 27010G20KT RMK NXT FCST BY 141400Z